Share

Terry, MT (59349)

Dawson Community (KGDV) Elev 2457 ft | 47.14 °N, 104.81 °W | Change Station

Current weather conditions updated 17 minutes ago

Partly Cloudy
Partly Cloudy
48 °F
Feels Like 48 °F
N
21
Wind Variable Wind from WNW
Gusts 28 mph
Sunrise 6:06 AM
Sunset 7:55 PM
Moon Waning Gibbous

Today is forecast to be nearly the same temperature as yesterday.

Pressure 29.96 in
Visibility 10.0 miles
Clouds Few 2900 ft
Dew Point 34 °F
Humidity 58%
Rainfall 0.00 in
Snow Depth Not available.
UV 4 out of 16
Pollen 10.30 out of 12
Air Quality Not available.
Flu Activity Sporadic
METAR KGDV 191535Z AUTO 29018G24KT 10SM FEW029 09/01 A2996 RMK AO1

More Conditions Fewer Conditions

Pressure 29.96 in
Visibility 10.0 miles
Clouds Few 2900 ft
Dew Point 34 °F
Humidity 58%
Rainfall 0.00 in
Snow Depth Not available.
UV 4 out of 16
Pollen 10.30 out of 12
Air Quality Not available.
Flu Activity Sporadic
METAR KGDV 191535Z AUTO 29018G24KT 10SM FEW029 09/01 A2996 RMK AO1

More Conditions Fewer Conditions

10-Day Weather Forecast

Almanac

Astronomy

Apr. 19, 2014 Rise Set
Actual Time 6:06 AM MDT 7:55 PM MDT
Civil Twilight 5:34 AM MDT 8:27 PM MDT
Nautical Twilight 4:54 AM MDT 9:07 PM MDT
Astronomical Twilight 4:11 AM MDT 9:50 PM MDT
Moon No Moon Rise 9:18 AM MDT
Length of Visible Light 14h 53m
Length of Day
13h 48m
Tomorrow will be 3m 9s longer.
Waning Gibbous, 79% of the Moon is Illuminated
Today
Waning Gibbous
Apr 22
Last Quarter
Apr 29
New
May 6
First Quarter
May 14
Full

Today's Extremes

State Highs State Lows

Community

  • A Glorious Morning
    A Glorious Morning
  • Tender Rays Of Hope
    Tender Rays Of Hope
  • Bleeding Hearts
    Bleeding Hearts
  • Sunset Silhouettes
    Sunset Silhouettes
  • FL sunset Perico Isle
    FL sunset Perico Isle

WunderPhotos

Upload Photos

1,702,769 photos uploaded!

WunderBlogs® & News

Nearby

Snow Depth

Station Depth Elevation
Crystal Lake 58 in 6050 ft
Cole Creek 76 in 7850 ft
Rocky Boy 7 in 4700 ft
Burnt Mountain 29 in 5880 ft
Daisy Peak 50 in 7600 ft

Coastal Water Temperatures

Place Temperature
No Stations Reporting

Earthquake Activity

City Distance Mag. Time & Date
No recent earthquake activity has been reported nearby.
Minimum magnitude displayed is 2.5.

Nearby Weather Stations

Station Location Temp. Windchill Dew Point Humidity Wind Precip. Elev Updated Type
MesoWest BUFFALO RAPIDS/TERRY , Terry, MT 49 °F 49 °F 28 °F 45% WNW  at  - 0.00 in / hr 2270 ft 8:45 AM MDT MADIS

Show More Stations Show Fewer Stations

What do you think?

We're not finished. Please let us know what you like, what you don't like, and what you are still missing.